createdAt,value
2022-11-10T00:01:04.947Z,82.03
2022-11-10T00:03:53.933Z,81.80
2022-11-10T00:06:41.390Z,81.98
2022-11-10T00:09:29.056Z,82.00
2022-11-10T00:12:16.590Z,81.88
2022-11-10T00:15:24.076Z,81.86
2022-11-10T00:18:11.873Z,81.86
2022-11-10T00:21:04.807Z,82.31
2022-11-10T00:23:52.203Z,82.45
2022-11-10T00:26:39.764Z,82.52
2022-11-10T00:29:27.027Z,82.62
2022-11-10T00:32:16.701Z,82.54
2022-11-10T00:35:04.928Z,82.37
2022-11-10T00:37:52.751Z,82.36
2022-11-10T00:40:40.365Z,82.42
2022-11-10T00:43:30.920Z,82.51
2022-11-10T00:46:18.901Z,82.48
2022-11-10T00:49:06.979Z,82.45
2022-11-10T00:51:54.810Z,82.59
2022-11-10T00:54:44.907Z,82.49
2022-11-10T00:57:32.312Z,82.54
2022-11-10T01:00:22.698Z,82.35
2022-11-10T01:03:15.453Z,82.57
2022-11-10T01:06:06.536Z,82.69
2022-11-10T01:08:53.951Z,82.72
2022-11-10T01:11:41.313Z,82.78
2022-11-10T01:14:29.117Z,82.85
2022-11-10T01:17:16.927Z,82.77
2022-11-10T01:20:10.800Z,82.92
2022-11-10T01:22:59.107Z,83.01
2022-11-10T01:25:46.928Z,82.98
2022-11-10T01:28:37.527Z,83.16
2022-11-10T01:31:24.748Z,82.91
2022-11-10T01:34:12.292Z,82.92
2022-11-10T01:36:59.987Z,82.96
2022-11-10T01:39:47.747Z,83.12
2022-11-10T01:42:49.203Z,83.00
2022-11-10T01:45:45.583Z,83.13
2022-11-10T01:51:48.240Z,83.11
2022-11-10T01:54:41.431Z,83.28
2022-11-10T01:57:29.722Z,83.20
2022-11-10T02:00:18.261Z,83.23
2022-11-10T02:03:13.292Z,83.25
2022-11-10T02:06:01.653Z,83.23
2022-11-10T02:08:50.251Z,83.26
2022-11-10T02:11:39.639Z,83.21
2022-11-10T02:14:29.720Z,83.27
2022-11-10T02:17:19.549Z,83.08
2022-11-10T02:20:11.619Z,82.97
2022-11-10T02:22:59.392Z,82.87
2022-11-10T02:25:47.140Z,82.77
2022-11-10T02:28:35.698Z,82.90
2022-11-10T02:31:23.206Z,82.89
2022-11-10T02:34:10.684Z,82.96
2022-11-10T02:36:58.263Z,82.99
2022-11-10T02:39:48.061Z,83.03
2022-11-10T02:42:35.656Z,82.94
2022-11-10T02:45:23.207Z,83.07
2022-11-10T02:48:14.808Z,83.12
2022-11-10T02:51:02.778Z,82.89
2022-11-10T02:53:52.994Z,82.95
2022-11-10T02:56:40.957Z,82.99
2022-11-10T02:59:28.215Z,82.88
2022-11-10T03:02:15.765Z,83.03
2022-11-10T03:05:06.118Z,82.89
2022-11-10T03:07:55.401Z,82.94
2022-11-10T03:10:42.991Z,82.79
2022-11-10T03:13:45.431Z,82.79
2022-11-10T03:16:41.191Z,82.96
2022-11-10T03:19:28.679Z,83.03
2022-11-10T03:22:16.712Z,83.13
2022-11-10T03:25:05.518Z,83.12
2022-11-10T03:27:52.844Z,83.11
2022-11-10T03:30:40.876Z,83.06
2022-11-10T03:33:28.213Z,83.03
2022-11-10T03:36:15.824Z,82.92
2022-11-10T03:39:03.729Z,83.01
2022-11-10T03:41:51.276Z,83.04
2022-11-10T03:44:39.231Z,82.94
2022-11-10T03:47:26.792Z,82.96
2022-11-10T03:50:14.905Z,82.95
2022-11-10T03:53:02.211Z,82.89
2022-11-10T03:55:52.183Z,82.82
2022-11-10T03:58:40.142Z,82.67
2022-11-10T04:01:27.891Z,82.66
2022-11-10T04:04:30.708Z,82.74
2022-11-10T04:07:37.456Z,82.63
2022-11-10T04:10:25.948Z,82.61
2022-11-10T04:13:34.882Z,82.75
2022-11-10T04:16:22.722Z,82.68
2022-11-10T04:19:37.343Z,82.81
2022-11-10T04:22:39.681Z,82.87
2022-11-10T04:25:27.339Z,83.03
2022-11-10T04:28:14.641Z,82.93
2022-11-10T04:31:06.478Z,82.93
2022-11-10T04:33:57.263Z,82.96
2022-11-10T04:36:48.609Z,82.93
2022-11-10T04:39:36.022Z,82.82
2022-11-10T04:42:23.492Z,82.86
2022-11-10T04:45:14.331Z,82.82
2022-11-10T04:48:01.870Z,82.81
2022-11-10T04:50:49.439Z,82.86
2022-11-10T04:53:36.994Z,83.08
2022-11-10T04:56:25.126Z,82.92
2022-11-10T04:59:12.610Z,83.03
2022-11-10T05:02:00.238Z,83.13
2022-11-10T05:04:47.724Z,83.06
2022-11-10T05:07:35.072Z,83.18
2022-11-10T05:10:22.736Z,83.13
2022-11-10T05:13:10.933Z,83.09
2022-11-10T05:15:58.455Z,83.11
2022-11-10T05:18:46.348Z,83.18
2022-11-10T05:21:33.693Z,83.13
2022-11-10T05:24:21.130Z,83.11
2022-11-10T05:27:08.804Z,83.08
2022-11-10T05:29:56.244Z,83.13
2022-11-10T05:32:43.749Z,83.24
2022-11-10T05:35:34.945Z,83.27
2022-11-10T05:38:22.930Z,83.30
2022-11-10T05:41:10.925Z,83.31
2022-11-10T05:43:58.287Z,83.34
2022-11-10T05:46:46.173Z,83.35
2022-11-10T05:49:34.045Z,83.40
2022-11-10T05:52:21.217Z,83.43
2022-11-10T05:55:10.589Z,83.64
2022-11-10T05:57:59.291Z,83.56
2022-11-10T06:00:46.790Z,83.74
2022-11-10T06:03:34.047Z,83.75
2022-11-10T06:06:22.459Z,84.06
2022-11-10T06:09:12.626Z,84.09
2022-11-10T06:12:01.075Z,84.00
2022-11-10T06:14:49.072Z,83.81
2022-11-10T06:17:38.608Z,83.83
2022-11-10T06:20:28.743Z,83.91
2022-11-10T06:23:18.780Z,83.75
2022-11-10T06:26:06.776Z,83.87
2022-11-10T06:28:54.422Z,83.77
2022-11-10T06:31:41.590Z,83.75
2022-11-10T06:34:29.154Z,83.81
2022-11-10T06:37:16.974Z,83.84
2022-11-10T06:40:06.474Z,83.92
2022-11-10T06:42:54.481Z,84.04
2022-11-10T06:45:42.351Z,84.05
2022-11-10T06:48:29.959Z,84.11
2022-11-10T06:51:17.921Z,84.09
2022-11-10T06:54:06.920Z,84.32
2022-11-10T06:56:54.378Z,84.15
2022-11-10T06:59:41.960Z,84.20
2022-11-10T07:02:29.567Z,84.39
2022-11-10T07:05:17.180Z,84.42
2022-11-10T07:08:09.064Z,84.51
2022-11-10T07:10:58.676Z,84.32
2022-11-10T07:13:48.896Z,84.37
2022-11-10T07:16:36.991Z,84.46
2022-11-10T07:19:24.619Z,84.51
2022-11-10T07:22:14.375Z,84.38
2022-11-10T07:25:01.760Z,84.21
2022-11-10T07:27:53.955Z,84.31
2022-11-10T07:30:41.420Z,84.49
2022-11-10T07:33:29.379Z,84.78
2022-11-10T07:36:16.710Z,84.70
2022-11-10T07:39:06.633Z,84.59
2022-11-10T07:41:54.110Z,84.66
2022-11-10T07:44:41.705Z,84.42
2022-11-10T07:47:29.664Z,84.54
2022-11-10T07:50:17.695Z,84.55
2022-11-10T07:53:07.639Z,84.76
2022-11-10T07:55:57.390Z,84.84
2022-11-10T07:58:46.622Z,84.70
2022-11-10T08:01:36.971Z,84.73
2022-11-10T08:04:24.717Z,84.69
2022-11-10T08:07:12.275Z,84.57
2022-11-10T08:10:00.611Z,84.62
2022-11-10T08:12:55.404Z,84.41
2022-11-10T08:15:43.220Z,84.63
2022-11-10T08:18:35.095Z,84.94
2022-11-10T08:21:23.290Z,84.94
2022-11-10T08:24:11.125Z,85.15
2022-11-10T08:27:01.031Z,84.89
2022-11-10T08:29:49.006Z,84.73
2022-11-10T08:32:36.390Z,84.62
2022-11-10T08:35:25.446Z,84.53
2022-11-10T08:38:14.777Z,84.26
2022-11-10T08:41:13.500Z,84.30
2022-11-10T08:44:01.111Z,84.39
2022-11-10T08:46:49.136Z,84.71
2022-11-10T08:49:36.852Z,85.05
2022-11-10T08:52:24.602Z,84.83
2022-11-10T08:55:12.303Z,84.50
2022-11-10T08:58:00.680Z,84.54
2022-11-10T09:00:48.831Z,84.42
2022-11-10T09:03:36.389Z,84.13
2022-11-10T09:06:23.657Z,84.02
2022-11-10T09:09:11.537Z,84.06
2022-11-10T09:11:59.447Z,83.88
2022-11-10T09:14:48.482Z,83.57
2022-11-10T09:17:36.590Z,83.04
2022-11-10T09:20:24.075Z,83.05
2022-11-10T09:23:13.587Z,82.97
2022-11-10T09:26:01.594Z,82.83
2022-11-10T09:28:50.486Z,82.43
2022-11-10T09:31:37.949Z,82.01
2022-11-10T09:34:25.448Z,82.20
2022-11-10T09:37:13.141Z,82.04
2022-11-10T09:40:01.531Z,81.91
2022-11-10T09:42:53.964Z,81.71
2022-11-10T09:45:46.218Z,81.86
2022-11-10T09:48:38.783Z,81.92
2022-11-10T09:51:30.300Z,81.70
2022-11-10T09:54:33.344Z,81.29
2022-11-10T09:57:24.287Z,80.22
2022-11-10T10:00:16.433Z,80.81
2022-11-10T10:03:08.147Z,80.74
2022-11-10T10:06:06.417Z,80.61
2022-11-10T10:09:06.580Z,80.01
2022-11-10T10:12:07.989Z,80.39
2022-11-10T10:15:11.601Z,80.44
2022-11-10T10:18:12.721Z,80.15
2022-11-10T10:21:15.817Z,79.91
2022-11-10T10:24:18.032Z,79.78
2022-11-10T10:27:12.883Z,79.88
2022-11-10T10:30:00.298Z,79.61
2022-11-10T10:32:48.026Z,79.88
2022-11-10T10:35:41.918Z,79.80
2022-11-10T10:38:34.599Z,79.65
2022-11-10T10:41:25.049Z,79.44
2022-11-10T10:44:15.041Z,78.82
2022-11-10T10:47:04.004Z,78.67
2022-11-10T10:49:51.779Z,78.42
2022-11-10T10:52:40.660Z,78.02
2022-11-10T10:55:30.141Z,78.08
2022-11-10T10:58:24.392Z,77.58
2022-11-10T11:01:25.032Z,77.26
2022-11-10T11:04:29.343Z,77.42
2022-11-10T11:07:23.309Z,76.18
2022-11-10T11:10:24.714Z,76.59
2022-11-10T11:13:20.615Z,76.73
2022-11-10T11:16:11.813Z,76.44
2022-11-10T11:19:02.285Z,76.51
2022-11-10T11:22:05.304Z,76.64
2022-11-10T11:25:00.774Z,76.00
2022-11-10T11:27:59.521Z,76.29
2022-11-10T11:31:03.178Z,75.75
2022-11-10T11:33:59.462Z,75.07
2022-11-10T11:36:53.373Z,75.58
2022-11-10T11:39:53.932Z,75.46
2022-11-10T11:42:55.412Z,75.57
2022-11-10T11:45:51.953Z,75.69
2022-11-10T11:49:01.182Z,75.71
2022-11-10T11:52:01.698Z,76.28
2022-11-10T11:55:04.032Z,76.60
2022-11-10T11:58:12.880Z,76.11
2022-11-10T12:01:18.040Z,75.52
2022-11-10T12:04:33.172Z,75.66
2022-11-10T12:07:35.087Z,75.47
2022-11-10T12:10:41.894Z,74.94
2022-11-10T12:13:40.223Z,74.71
2022-11-10T12:16:31.298Z,75.04
2022-11-10T12:19:30.329Z,74.90
2022-11-10T12:22:31.069Z,74.97
2022-11-10T12:25:30.621Z,74.47
2022-11-10T12:28:27.122Z,74.24
2022-11-10T12:31:20.641Z,74.10
2022-11-10T12:34:16.245Z,73.88
2022-11-10T12:37:07.163Z,73.73
2022-11-10T12:40:02.834Z,73.87
2022-11-10T12:42:55.570Z,73.80
2022-11-10T12:45:46.674Z,74.01
2022-11-10T12:48:52.436Z,74.43
2022-11-10T12:51:49.256Z,74.42
2022-11-10T12:54:37.793Z,74.07
2022-11-10T12:57:28.783Z,74.03
2022-11-10T13:00:28.505Z,73.93
2022-11-10T13:03:27.369Z,74.16
2022-11-10T13:06:27.007Z,74.30
2022-11-10T13:09:26.385Z,74.27
2022-11-10T13:12:19.910Z,74.74
2022-11-10T13:15:39.219Z,74.94
2022-11-10T13:18:58.536Z,75.10
2022-11-10T13:22:10.261Z,75.45
2022-11-10T13:25:29.963Z,75.56
2022-11-10T13:28:56.549Z,74.76
2022-11-10T13:31:56.465Z,74.75
2022-11-10T13:34:44.688Z,74.66
2022-11-10T13:37:52.344Z,74.38
2022-11-10T13:40:40.380Z,74.50
2022-11-10T13:43:27.967Z,74.25
2022-11-10T13:46:15.894Z,73.89
2022-11-10T13:49:26.098Z,74.18
2022-11-10T13:52:17.948Z,74.56
2022-11-10T13:55:27.780Z,74.64
2022-11-10T13:58:25.752Z,74.27
2022-11-10T14:01:29.591Z,74.49
2022-11-10T14:04:39.620Z,74.64
2022-11-10T14:07:30.010Z,74.56
2022-11-10T14:10:26.316Z,74.61
2022-11-10T14:13:18.927Z,74.63
2022-11-10T14:16:16.904Z,74.73
2022-11-10T14:22:34.639Z,75.24
2022-11-10T14:25:28.900Z,75.25
2022-11-10T14:28:30.649Z,75.16
2022-11-10T14:31:23.348Z,75.42
2022-11-10T14:34:17.307Z,75.43
2022-11-10T14:37:06.383Z,75.31
2022-11-10T14:39:56.641Z,75.27
2022-11-10T14:42:46.468Z,75.33
2022-11-10T14:45:34.044Z,75.23
2022-11-10T14:48:25.020Z,75.46
2022-11-10T14:51:15.427Z,75.58
2022-11-10T14:54:03.487Z,75.57
2022-11-10T14:56:51.272Z,75.68
2022-11-10T14:59:39.799Z,75.54
2022-11-10T15:02:27.947Z,75.36
2022-11-10T15:05:18.052Z,75.28
2022-11-10T15:08:06.521Z,75.33
2022-11-10T15:10:55.664Z,75.40
2022-11-10T15:13:43.082Z,75.45
2022-11-10T15:16:33.381Z,75.45
2022-11-10T15:19:23.879Z,75.51
2022-11-10T15:22:19.511Z,75.52
2022-11-10T15:25:15.637Z,75.66
2022-11-10T15:28:06.371Z,75.75
2022-11-10T15:30:56.172Z,75.72
2022-11-10T15:33:47.679Z,75.83
2022-11-10T15:36:38.918Z,75.89
2022-11-10T15:39:27.660Z,76.00
2022-11-10T15:42:17.447Z,76.00
2022-11-10T15:45:06.281Z,76.07
2022-11-10T15:47:53.600Z,76.23
2022-11-10T15:50:44.408Z,76.32
2022-11-10T15:53:40.799Z,76.40
2022-11-10T15:56:28.423Z,76.36
2022-11-10T15:59:18.300Z,76.47
2022-11-10T16:02:17.381Z,76.58
2022-11-10T16:05:11.274Z,76.67
2022-11-10T16:07:58.801Z,76.78
2022-11-10T16:10:51.180Z,76.85
2022-11-10T16:13:39.802Z,76.94
2022-11-10T16:16:27.708Z,77.08
2022-11-10T16:19:15.265Z,77.14
2022-11-10T16:22:02.941Z,77.25
2022-11-10T16:24:50.362Z,77.23
2022-11-10T16:28:02.520Z,77.16
2022-11-10T16:31:15.545Z,77.32
2022-11-10T16:34:03.223Z,77.45
2022-11-10T16:36:50.821Z,77.65
2022-11-10T16:39:38.547Z,77.72
2022-11-10T16:42:26.048Z,77.85
2022-11-10T16:45:23.300Z,77.79
2022-11-10T16:48:28.196Z,77.68
2022-11-10T16:51:17.656Z,77.79
2022-11-10T16:57:27.080Z,77.90
2022-11-10T17:00:19.394Z,78.17
2022-11-10T17:03:12.793Z,78.34
2022-11-10T17:06:00.826Z,78.34
2022-11-10T17:08:51.064Z,78.63
2022-11-10T17:11:38.737Z,78.71
2022-11-10T17:14:26.689Z,78.96
2022-11-10T17:17:18.042Z,78.96
2022-11-10T17:20:09.594Z,79.06
2022-11-10T17:22:57.499Z,79.14
2022-11-10T17:25:45.818Z,79.18
2022-11-10T17:28:33.385Z,79.40
2022-11-10T17:31:21.325Z,79.37
2022-11-10T17:34:08.692Z,79.28
2022-11-10T17:36:56.743Z,79.34
2022-11-10T17:39:43.998Z,79.49
2022-11-10T17:42:31.429Z,79.60
2022-11-10T17:45:21.096Z,79.61
2022-11-10T17:48:08.397Z,79.69
2022-11-10T17:50:55.575Z,79.74
2022-11-10T17:53:43.489Z,79.92
2022-11-10T17:56:30.860Z,79.94
2022-11-10T17:59:18.191Z,79.98
2022-11-10T18:02:08.821Z,80.02
2022-11-10T18:04:56.688Z,79.94
2022-11-10T18:07:49.654Z,80.08
2022-11-10T18:10:40.501Z,80.07
2022-11-10T18:13:29.628Z,80.05
2022-11-10T18:16:17.691Z,80.10
2022-11-10T18:19:06.870Z,80.15
2022-11-10T18:21:54.455Z,80.20
2022-11-10T18:24:42.395Z,80.28
2022-11-10T18:27:30.852Z,80.48
2022-11-10T18:30:18.937Z,80.45
2022-11-10T18:33:07.249Z,80.56
2022-11-10T18:35:59.620Z,80.58
2022-11-10T18:38:47.644Z,80.66
2022-11-10T18:41:51.712Z,80.68
2022-11-10T18:44:39.514Z,80.82
2022-11-10T18:47:26.860Z,80.87
2022-11-10T18:50:14.412Z,80.89
2022-11-10T18:53:03.678Z,80.80
2022-11-10T18:55:57.392Z,80.81
2022-11-10T19:01:47.261Z,80.77
2022-11-10T19:04:35.782Z,80.71
2022-11-10T19:07:23.538Z,80.80
2022-11-10T19:10:11.365Z,80.79
2022-11-10T19:12:59.320Z,80.74
2022-11-10T19:15:47.059Z,80.67
2022-11-10T19:18:34.216Z,80.77
2022-11-10T19:21:24.051Z,80.74
2022-11-10T19:24:11.648Z,80.78
2022-11-10T19:27:01.690Z,80.93
2022-11-10T19:29:49.153Z,80.90
2022-11-10T19:32:39.574Z,80.97
2022-11-10T19:35:26.940Z,80.99
2022-11-10T19:38:14.611Z,81.16
2022-11-10T19:41:06.472Z,81.33
2022-11-10T19:43:55.281Z,81.23
2022-11-10T19:46:45.600Z,81.30
2022-11-10T19:49:33.016Z,81.20
2022-11-10T19:52:20.505Z,81.17
2022-11-10T19:55:08.729Z,81.19
2022-11-10T19:57:56.600Z,81.08
2022-11-10T20:00:47.064Z,81.01
2022-11-10T20:03:34.898Z,80.97
2022-11-10T20:06:23.268Z,80.76
2022-11-10T20:09:11.072Z,80.80
2022-11-10T20:11:59.876Z,80.75
2022-11-10T20:14:47.700Z,80.68
2022-11-10T20:17:35.102Z,80.60
2022-11-10T20:20:22.751Z,80.72
2022-11-10T20:23:12.232Z,80.75
2022-11-10T20:26:06.979Z,80.82
2022-11-10T20:28:55.122Z,80.83
2022-11-10T20:31:43.211Z,80.74
2022-11-10T20:34:30.515Z,80.82
2022-11-10T20:37:18.368Z,80.78
2022-11-10T20:40:18.897Z,80.89
2022-11-10T20:43:15.023Z,80.95
2022-11-10T20:46:04.010Z,80.94
2022-11-10T20:48:51.516Z,81.13
2022-11-10T20:51:39.697Z,81.11
2022-11-10T20:54:27.449Z,81.24
2022-11-10T20:57:15.501Z,81.19
2022-11-10T21:00:03.217Z,81.22
2022-11-10T21:02:50.838Z,81.10
2022-11-10T21:05:38.374Z,81.05
2022-11-10T21:08:25.781Z,80.93
2022-11-10T21:11:35.518Z,80.94
2022-11-10T21:14:22.719Z,81.17
2022-11-10T21:17:10.201Z,81.26
2022-11-10T21:19:57.559Z,81.26
2022-11-10T21:22:45.224Z,81.30
2022-11-10T21:25:39.142Z,81.22
2022-11-10T21:28:27.231Z,81.12
2022-11-10T21:31:14.618Z,81.12
2022-11-10T21:34:02.170Z,81.15
2022-11-10T21:37:21.112Z,81.05
2022-11-10T21:40:11.260Z,81.02
2022-11-10T21:42:59.480Z,80.92
2022-11-10T21:45:47.507Z,81.02
2022-11-10T21:48:35.460Z,81.02
2022-11-10T21:51:26.791Z,81.16
2022-11-10T21:54:14.305Z,81.23
2022-11-10T21:57:01.858Z,81.10
2022-11-10T21:59:49.180Z,81.10
2022-11-10T22:02:36.657Z,81.44
2022-11-10T22:05:53.187Z,81.35
2022-11-10T22:09:08.361Z,81.40
2022-11-10T22:12:42.787Z,81.67
2022-11-10T22:15:53.987Z,81.79
2022-11-10T22:18:44.416Z,81.74
2022-11-10T22:21:34.828Z,81.86
2022-11-10T22:24:28.840Z,81.98
2022-11-10T22:27:18.418Z,82.06
2022-11-10T22:30:08.141Z,82.09
2022-11-10T22:33:27.004Z,82.48
2022-11-10T22:36:17.171Z,82.66
2022-11-10T22:39:08.813Z,82.80
2022-11-10T22:42:24.311Z,83.27
2022-11-10T22:45:12.401Z,83.60
2022-11-10T22:48:18.686Z,83.91
2022-11-10T22:51:07.659Z,84.03
2022-11-10T22:53:55.940Z,84.30
2022-11-10T22:56:46.610Z,84.51
2022-11-10T22:59:47.401Z,84.65
2022-11-10T23:02:43.268Z,84.42
2022-11-10T23:05:34.288Z,84.58
2022-11-10T23:08:31.539Z,84.83
2022-11-10T23:12:02.733Z,85.00
2022-11-10T23:14:58.276Z,85.12
2022-11-10T23:17:45.784Z,85.17
2022-11-10T23:20:33.228Z,85.32
2022-11-10T23:23:20.898Z,85.22
2022-11-10T23:26:11.097Z,85.08
2022-11-10T23:28:58.811Z,85.23
2022-11-10T23:31:46.453Z,85.23
2022-11-10T23:34:34.895Z,85.34
2022-11-10T23:37:26.407Z,85.29
2022-11-10T23:40:14.448Z,85.36
2022-11-10T23:43:01.903Z,85.36
2022-11-10T23:48:59.295Z,85.36
2022-11-10T23:51:48.966Z,85.50
2022-11-10T23:54:36.131Z,85.39
2022-11-10T23:57:23.689Z,85.35
